createdAt,value
2019-03-18T00:00:38.609Z,4.30
2019-03-18T00:06:43.178Z,4.20
2019-03-18T00:12:47.746Z,4.10
2019-03-18T00:18:52.384Z,4.00
2019-03-18T00:24:57.004Z,4.00
2019-03-18T00:31:01.591Z,4.00
2019-03-18T00:37:06.297Z,3.90
2019-03-18T00:43:10.842Z,3.90
2019-03-18T00:49:15.379Z,3.80
2019-03-18T00:55:20.003Z,3.80
2019-03-18T01:01:24.549Z,3.70
2019-03-18T01:07:29.253Z,3.70
2019-03-18T01:13:34.751Z,3.60
2019-03-18T01:19:39.327Z,3.70
2019-03-18T01:25:43.877Z,3.70
2019-03-18T01:31:48.420Z,3.60
2019-03-18T01:37:53.067Z,3.70
2019-03-18T01:43:57.633Z,3.80
2019-03-18T01:50:02.182Z,3.80
2019-03-18T01:56:06.749Z,3.80
2019-03-18T02:02:11.295Z,3.70
2019-03-18T02:08:15.843Z,3.70
2019-03-18T02:14:20.392Z,3.60
2019-03-18T02:20:24.958Z,3.70
2019-03-18T02:26:29.520Z,3.70
2019-03-18T02:32:34.184Z,3.70
2019-03-18T02:38:38.723Z,3.70
2019-03-18T02:44:43.272Z,3.70
2019-03-18T02:50:47.816Z,3.80
2019-03-18T02:56:52.372Z,3.80
2019-03-18T03:02:56.941Z,3.80
2019-03-18T03:09:01.485Z,3.60
2019-03-18T03:15:12.265Z,3.50
2019-03-18T03:21:16.796Z,3.50
2019-03-18T03:27:21.352Z,3.50
2019-03-18T03:33:25.922Z,3.50
2019-03-18T03:39:30.514Z,3.40
2019-03-18T03:45:35.112Z,3.40
2019-03-18T03:51:39.698Z,3.50
2019-03-18T03:57:44.327Z,3.50
2019-03-18T04:03:48.947Z,3.60
2019-03-18T04:09:53.573Z,3.70
2019-03-18T04:15:58.123Z,3.70
2019-03-18T04:22:03.592Z,3.70
2019-03-18T04:28:08.304Z,3.70
2019-03-18T04:34:12.835Z,3.80
2019-03-18T04:40:17.468Z,3.90
2019-03-18T04:46:22.009Z,3.90
2019-03-18T04:52:26.622Z,4.00
2019-03-18T04:58:31.226Z,4.00
2019-03-18T05:04:35.783Z,4.00
2019-03-18T05:10:40.345Z,3.80
2019-03-18T05:16:44.904Z,3.70
2019-03-18T05:22:49.484Z,3.50
2019-03-18T05:28:54.088Z,3.30
2019-03-18T05:34:58.652Z,3.20
2019-03-18T05:41:03.259Z,3.10
2019-03-18T05:47:07.800Z,3.10
2019-03-18T05:53:12.356Z,3.20
2019-03-18T05:59:16.978Z,3.20
2019-03-18T06:05:21.531Z,3.30
2019-03-18T06:11:26.174Z,3.30
2019-03-18T06:17:30.834Z,3.40
2019-03-18T06:23:35.487Z,3.30
2019-03-18T06:29:40.013Z,3.30
2019-03-18T06:35:44.654Z,3.40
2019-03-18T06:41:49.224Z,3.60
2019-03-18T06:48:04.063Z,3.50
2019-03-18T06:54:00.121Z,3.60
2019-03-18T07:00:08.125Z,3.70
2019-03-18T07:06:12.649Z,3.80
2019-03-18T07:12:17.287Z,3.80
2019-03-18T07:18:21.895Z,3.90
2019-03-18T07:24:26.447Z,3.90
2019-03-18T07:30:31.062Z,3.90
2019-03-18T07:36:35.724Z,4.10
2019-03-18T07:42:40.365Z,4.30
2019-03-18T07:48:44.911Z,4.60
2019-03-18T07:54:49.469Z,4.70
2019-03-18T08:00:54.064Z,4.80
2019-03-18T08:06:58.626Z,4.90
2019-03-18T08:13:03.249Z,5.10
2019-03-18T08:19:07.809Z,5.50
2019-03-18T08:25:12.507Z,5.70
2019-03-18T08:31:17.154Z,5.60
2019-03-18T08:37:21.780Z,5.30
2019-03-18T08:43:26.334Z,5.40
2019-03-18T08:49:30.924Z,5.40
2019-03-18T08:55:35.532Z,5.20
2019-03-18T09:01:40.157Z,4.60
2019-03-18T09:07:44.720Z,4.60
2019-03-18T09:13:49.286Z,4.80
2019-03-18T09:19:53.842Z,5.40
2019-03-18T09:25:58.381Z,5.80
2019-03-18T09:32:03.128Z,6.80
2019-03-18T09:38:08.170Z,7.30
2019-03-18T09:44:12.720Z,6.90
2019-03-18T09:50:17.602Z,7.00
2019-03-18T09:56:22.171Z,6.70
2019-03-18T10:02:26.778Z,6.30
2019-03-18T10:08:31.471Z,6.20
2019-03-18T10:14:36.030Z,6.30
2019-03-18T10:20:40.650Z,6.30
2019-03-18T10:26:45.212Z,6.40
2019-03-18T10:32:49.782Z,6.40
2019-03-18T10:38:54.340Z,6.80
2019-03-18T10:44:58.960Z,6.70
2019-03-18T10:51:03.515Z,7.20
2019-03-18T10:57:08.083Z,7.00
2019-03-18T11:03:12.775Z,7.10
2019-03-18T11:09:17.480Z,7.20
2019-03-18T11:15:23.339Z,8.00
2019-03-18T11:21:27.885Z,8.90
2019-03-18T11:27:32.795Z,9.40
2019-03-18T11:33:37.422Z,8.70
2019-03-18T11:39:42.004Z,8.00
2019-03-18T11:45:46.605Z,7.30
2019-03-18T11:51:51.169Z,6.90
2019-03-18T11:57:55.788Z,6.70
2019-03-18T12:04:00.366Z,7.80
2019-03-18T12:10:11.810Z,9.00
2019-03-18T12:16:16.430Z,10.60
2019-03-18T12:22:20.992Z,9.10
2019-03-18T12:28:25.545Z,8.40
2019-03-18T12:34:30.101Z,8.00
2019-03-18T12:40:34.650Z,8.60
2019-03-18T12:46:39.237Z,9.30
2019-03-18T12:52:44.137Z,10.60
2019-03-18T12:58:48.855Z,10.90
2019-03-18T13:04:53.420Z,9.60
2019-03-18T13:10:57.973Z,8.90
2019-03-18T13:17:02.543Z,8.30
2019-03-18T13:23:07.107Z,8.10
2019-03-18T13:29:11.730Z,7.90
2019-03-18T13:35:16.524Z,7.70
2019-03-18T13:41:21.079Z,7.70
2019-03-18T13:47:25.834Z,8.80
2019-03-18T13:53:30.387Z,9.40
2019-03-18T13:59:35.095Z,8.50
2019-03-18T14:05:39.663Z,8.10
2019-03-18T14:11:44.209Z,8.10
2019-03-18T14:17:48.782Z,8.20
2019-03-18T14:23:53.477Z,8.00
2019-03-18T14:29:58.039Z,7.90
2019-03-18T14:36:02.621Z,7.80
2019-03-18T14:42:07.174Z,7.70
2019-03-18T14:48:11.856Z,7.60
2019-03-18T14:54:16.415Z,7.50
2019-03-18T15:00:24.470Z,7.40
2019-03-18T15:06:29.034Z,7.50
2019-03-18T15:12:34.530Z,8.10
2019-03-18T15:18:39.077Z,8.00
2019-03-18T15:24:43.619Z,7.50
2019-03-18T15:30:48.202Z,7.20
2019-03-18T15:36:52.771Z,7.10
2019-03-18T15:42:57.526Z,7.60
2019-03-18T15:49:02.089Z,8.80
2019-03-18T15:55:07.841Z,8.40
2019-03-18T16:01:12.412Z,9.60
2019-03-18T16:07:17.046Z,9.90
2019-03-18T16:13:21.684Z,9.90
2019-03-18T16:19:26.242Z,9.90
2019-03-18T16:25:30.926Z,9.80
2019-03-18T16:31:35.489Z,9.70
2019-03-18T16:37:40.048Z,9.40
2019-03-18T16:43:44.609Z,9.80
2019-03-18T16:49:49.176Z,9.90
2019-03-18T16:55:53.730Z,9.80
2019-03-18T17:01:58.294Z,9.40
2019-03-18T17:08:02.926Z,8.90
2019-03-18T17:14:07.510Z,8.40
2019-03-18T17:20:19.020Z,7.50
2019-03-18T17:26:23.586Z,7.00
2019-03-18T17:32:28.132Z,6.70
2019-03-18T17:38:32.728Z,6.10
2019-03-18T17:44:37.282Z,5.50
2019-03-18T17:50:41.854Z,5.20
2019-03-18T17:56:46.429Z,4.90
2019-03-18T18:02:52.686Z,4.70
2019-03-18T18:08:57.405Z,4.70
2019-03-18T18:15:02.027Z,4.70
2019-03-18T18:21:06.578Z,4.70
2019-03-18T18:27:11.201Z,4.70
2019-03-18T18:33:15.835Z,4.70
2019-03-18T18:39:20.385Z,4.80
2019-03-18T18:45:25.004Z,4.80
2019-03-18T18:51:29.631Z,4.70
2019-03-18T18:57:34.322Z,4.70
2019-03-18T19:03:38.900Z,4.60
2019-03-18T19:09:43.451Z,4.50
2019-03-18T19:15:48.028Z,4.60
2019-03-18T19:21:52.639Z,4.70
2019-03-18T19:27:57.203Z,4.90
2019-03-18T19:34:01.784Z,5.00
2019-03-18T19:40:11.242Z,4.90
2019-03-18T19:46:15.834Z,4.70
2019-03-18T19:52:20.401Z,4.40
2019-03-18T19:58:24.936Z,4.50
2019-03-18T20:04:29.586Z,4.60
2019-03-18T20:10:34.158Z,4.50
2019-03-18T20:16:38.724Z,4.50
2019-03-18T20:22:43.447Z,4.50
2019-03-18T20:28:48.011Z,4.40
2019-03-18T20:34:52.571Z,4.20
2019-03-18T20:40:57.129Z,3.90
2019-03-18T20:47:01.696Z,3.70
2019-03-18T20:53:06.521Z,3.70
2019-03-18T20:59:11.190Z,4.00
2019-03-18T21:05:15.742Z,4.20
2019-03-18T21:11:20.376Z,4.40
2019-03-18T21:17:24.950Z,4.60
2019-03-18T21:23:29.511Z,4.80
2019-03-18T21:29:34.080Z,4.70
2019-03-18T21:35:38.719Z,4.70
2019-03-18T21:41:43.282Z,4.70
2019-03-18T21:47:47.977Z,4.70
2019-03-18T21:53:52.531Z,4.70
2019-03-18T21:59:57.618Z,4.60
2019-03-18T22:06:02.332Z,4.40
2019-03-18T22:12:07.072Z,4.20
2019-03-18T22:18:11.679Z,4.00
2019-03-18T22:24:16.244Z,3.80
2019-03-18T22:30:21.028Z,3.70
2019-03-18T22:36:25.573Z,3.60
2019-03-18T22:42:30.215Z,3.50
2019-03-18T22:48:34.767Z,3.40
2019-03-18T22:54:39.438Z,3.30
2019-03-18T23:00:45.718Z,3.30
2019-03-18T23:06:50.304Z,3.40
2019-03-18T23:12:54.877Z,3.40
2019-03-18T23:18:59.521Z,3.30
2019-03-18T23:25:07.535Z,3.20
2019-03-18T23:31:12.139Z,3.10
2019-03-18T23:37:16.707Z,3.00
2019-03-18T23:43:21.275Z,3.10
2019-03-18T23:49:25.829Z,3.10
2019-03-18T23:55:30.459Z,3.20
